Elfin Cove, Alaska
Current Conditions -  °F | °C
As of 2:48 PM on Friday 31 Oct 2014 (Local Time) from PAGS Reporting Station
Overcast Overcast  
Wind Chill: 37°   Ceiling: 3800
Heat Index: 43°   Visibility: 10mi
Dew Point: 37°   Wind: 10mph
Humidity: 81%   Direction: 140°SE
Pressure: 29.48"   Gusts: NA
Location:  58.19°N, 136.34°W
Report Text: PAGS 312248Z 14009KT 10SM FEW027 BKN038 OVC050 06/03 A2948
Loading
Personal Weather Stations






























Interactive Weather Map
Tropical Storm Tracking
New forecast layout! Learn more

10-Day Weather Forecast

Advertisements
Track Severe Weather on mobile